Latest Weather Observations for Cape Nelson

IDV60801

Issued at 10:05 am EST Tuesday 29 July 2014 (issued every 30 minutes, with the page automatically refreshed every 10 minutes)

About weather observations | Map of weather stations | Latest weather observations for VIC | Other Formats
Station Details ID: 090184 Name: CAPE NELSON LIGHTHOUSE Lat: -38.43 Lon: 141.54 Height: 45.4 m
Data from the previous 72 hours. | See also: Recent months at Cape Nelson
Date/Time
EST
Temp
°C
App
Temp
°C
Dew
Point
Rel
Hum
%
Delta-T
°C
Wind Press
QNH
hPa
Press
MSL
hPa
Rain
since 9 am
mm
Dir
 
Spd
km/h
Gust
km/h
Spd
kts
Gust
kts
29/10:00am 14.1 5.8 12.5 90 0.9 NW 48 72 26 39 1004.8 1004.8 0.0
29/09:30am 13.9 6.0 12.6 92 0.7 NW 46 70 25 38 1004.3 - 0.0
29/09:00am 13.6 5.0 12.8 95 0.4 NW 50 74 27 40 1004.2 1004.2 20.4
29/08:54am 13.5 6.1 12.9 96 0.3 NW 44 69 24 37 1004.3 - 20.4
29/08:35am 13.3 8.1 12.7 96 0.3 NW 32 50 17 27 1004.3 - 20.2
29/08:30am 13.2 7.0 12.6 96 0.3 NW 37 50 20 27 1004.5 - 20.0
29/08:02am 13.4 5.9 12.8 96 0.3 NW 44 67 24 36 1004.3 - 19.2
29/08:00am 13.4 6.1 12.8 96 0.3 NW 43 57 23 31 1004.4 1004.4 19.2
29/07:31am 13.3 6.0 12.7 96 0.3 NW 43 67 23 36 1004.7 - 19.2
29/07:30am 13.3 6.0 12.7 96 0.3 NW 43 59 23 32 1004.6 - 19.2
29/07:03am 13.3 6.7 12.7 96 0.3 NW 39 59 21 32 1004.8 - 17.4
29/07:00am 13.4 6.9 12.8 96 0.3 NW 39 52 21 28 1004.9 1004.9 17.2
29/06:30am 13.0 4.6 12.4 96 0.3 NW 48 67 26 36 1004.2 - 15.0
29/06:00am 12.9 5.2 12.1 95 0.4 NW 44 67 24 36 1004.4 1004.4 15.0
29/05:30am 12.8 5.0 11.9 94 0.5 NW 44 67 24 36 1004.0 - 13.2
29/05:00am 12.8 4.7 12.0 95 0.4 NW 46 72 25 39 1004.2 1004.2 13.0
29/04:35am 12.5 4.3 11.6 94 0.5 NW 46 65 25 35 1003.9 - 11.6
29/04:30am 12.5 4.6 11.6 94 0.5 NW 44 61 24 33 1004.3 - 11.6
29/04:03am 12.7 4.4 11.4 92 0.7 NW 46 65 25 35 1004.2 - 11.4
29/04:00am 12.8 4.1 11.4 91 0.7 NW 48 65 26 35 1004.2 1004.2 11.2
29/03:30am 13.2 4.9 11.3 88 1.0 NW 46 69 25 37 1004.2 - 10.8
29/03:00am 13.0 5.0 11.2 89 1.0 NW 44 65 24 35 1004.7 1004.7 10.8
29/02:30am 13.1 4.7 11.2 88 1.0 NW 46 69 25 37 1005.0 - 10.8
29/02:00am 12.9 4.5 11.1 89 1.0 NW 46 69 25 37 1005.1 1005.1 10.8
29/01:30am 12.9 4.1 11.1 89 0.9 NW 48 72 26 39 1005.6 - 10.8
29/01:00am 12.9 4.9 11.0 88 1.0 NW 44 69 24 37 1006.1 1006.1 10.8
29/12:30am 12.6 4.8 11.0 90 0.8 NNW 43 61 23 33 1006.5 - 10.8
29/12:00am 12.4 4.9 11.0 91 0.7 NW 41 65 22 35 1006.9 1006.9 10.8
 
Date/Time
EST
Temp
°C
App
Temp
°C
Dew
Point
Rel
Hum
%
Delta-T
°C
Wind Press
QNH
hPa
Press
MSL
hPa
Rain
since 9 am
mm
Dir
 
Spd
km/h
Gust
km/h
Spd
kts
Gust
kts
28/11:30pm 12.3 5.2 11.0 92 0.7 NNW 39 59 21 32 1007.5 - 10.8
28/11:11pm 12.1 5.0 11.0 93 0.6 NNW 39 59 21 32 1007.7 - 10.8
28/11:00pm 12.1 4.7 11.2 94 0.5 NNW 41 57 22 31 1007.8 1007.8 10.8
28/10:34pm 12.1 5.5 11.3 95 0.4 NNW 37 56 20 30 1008.3 - 10.8
28/10:30pm 12.1 5.5 11.3 95 0.4 NNW 37 52 20 28 1008.4 - 10.8
28/10:06pm 12.0 5.7 11.2 95 0.4 NNW 35 59 19 32 1008.7 - 10.8
28/10:00pm 12.1 5.5 11.3 95 0.4 NNW 37 52 20 28 1008.8 1008.8 10.6
28/09:30pm 12.2 6.9 11.4 95 0.4 NNW 30 50 16 27 1008.9 - 5.6
28/09:25pm 12.2 6.0 11.4 95 0.4 NNW 35 54 19 29 1009.1 - 4.2
28/09:00pm 12.4 6.2 11.3 93 0.6 NNW 35 50 19 27 1009.1 1009.1 1.2
28/08:39pm 12.5 6.2 11.1 91 0.7 NNW 35 54 19 29 1009.0 - 0.8
28/08:30pm 12.7 6.9 10.9 89 0.9 NNW 32 48 17 26 1009.2 - 0.4
28/08:24pm 12.8 6.5 10.9 88 1.0 NNW 35 54 19 29 1009.2 - 0.4
28/08:00pm 13.1 6.6 10.3 83 1.5 NNW 35 52 19 28 1008.9 1008.9 0.2
28/07:30pm 13.6 6.6 9.8 78 2.0 NNW 37 56 20 30 1008.8 - 0.2
28/07:01pm 13.8 7.4 9.5 75 2.2 NNW 33 52 18 28 1009.1 - 0.2
28/07:00pm 13.9 7.2 9.5 75 2.3 NNW 35 52 19 28 1009.1 1009.1 0.2
28/06:30pm 13.7 7.3 9.4 75 2.2 NW 33 43 18 23 1009.2 - 0.2
28/06:00pm 14.2 7.2 9.8 75 2.3 NW 37 50 20 27 1009.5 1009.5 0.2
28/05:35pm 14.3 7.7 10.1 76 2.2 NW 35 54 19 29 1009.3 - 0.2
28/05:30pm 14.3 7.3 10.1 76 2.2 NW 37 54 20 29 1009.3 - 0.2
28/05:05pm 14.7 7.7 10.1 74 2.4 NW 37 56 20 30 1009.1 - 0.2
28/05:00pm 14.8 7.4 10.0 73 2.5 NW 39 52 21 28 1009.1 1009.1 0.2
28/04:43pm 14.9 7.2 10.1 73 2.5 NW 41 61 22 33 1009.1 - 0.2
28/04:30pm 14.9 7.6 10.1 73 2.5 NW 39 56 21 30 1009.4 - 0.2
28/04:18pm 15.2 7.9 10.2 72 2.6 NW 39 57 21 31 1009.4 - 0.2
28/04:00pm 15.1 7.8 10.1 72 2.6 NW 39 56 21 30 1009.3 1009.3 0.2
28/03:37pm 15.8 7.8 10.3 70 2.9 NW 43 61 23 33 1009.4 - 0.2
28/03:30pm 15.9 7.8 10.2 69 3.0 NW 43 57 23 31 1009.5 - 0.2
28/03:01pm 16.2 8.5 10.1 67 3.2 NW 41 61 22 33 1009.4 - 0.2
28/03:00pm 16.2 8.5 10.3 68 3.1 NW 41 57 22 31 1009.5 1009.5 0.2
28/02:30pm 16.5 9.0 10.8 69 3.0 NW 41 61 22 33 1009.7 - 0.2
28/02:26pm 16.5 9.0 11.0 70 3.0 NW 41 59 22 32 1009.8 - 0.2
28/02:00pm 16.6 10.0 11.5 72 2.8 NW 37 54 20 29 1010.2 1010.2 0.0
28/01:30pm 15.7 8.9 10.7 72 2.7 NW 37 54 20 29 1010.5 - 0.0
28/01:00pm 15.7 8.9 10.7 72 2.7 NW 37 50 20 27 1010.9 1010.9 0.0
28/12:30pm 16.1 8.9 10.6 70 2.9 NW 39 57 21 31 1011.2 - 0.0
28/12:23pm 16.2 9.5 10.9 71 2.8 NW 37 56 20 30 1011.4 - 0.0
28/12:00pm 15.9 9.2 10.9 72 2.7 NW 37 52 20 28 1011.6 1011.6 0.0
28/11:41am 15.5 9.2 10.9 74 2.5 NW 35 54 19 29 1011.9 - 0.0
28/11:30am 15.2 8.4 10.8 75 2.3 NW 37 54 20 29 1012.1 - 0.0
28/11:04am 14.8 8.4 10.6 76 2.2 NW 35 54 19 29 1012.4 - 0.0
28/11:00am 14.9 8.5 10.7 76 2.2 NW 35 52 19 28 1012.4 1012.4 0.0
28/10:59am 14.9 8.6 10.9 77 2.1 NW 35 54 19 29 1012.4 - 0.0
28/10:30am 14.4 7.9 10.2 76 2.2 NW 35 48 19 26 1012.5 - 0.0
28/10:00am 13.7 7.2 10.3 80 1.8 NW 35 50 19 27 1012.7 1012.7 0.0
28/09:57am 13.7 7.6 10.3 80 1.8 NW 33 50 18 27 1012.7 - 0.0
28/09:30am 12.8 9.1 10.2 84 1.3 NNW 20 30 11 16 1012.7 - 0.0
28/09:00am 12.0 8.2 9.7 86 1.2 NNW 20 28 11 15 1012.8 1012.8 0.0
28/08:30am 11.4 7.5 9.5 88 1.0 N 20 28 11 15 1012.7 - 0.0
28/08:00am 11.0 7.1 9.4 90 0.8 NNW 20 28 11 15 1012.8 1012.8 0.0
28/07:30am 11.5 7.0 9.9 90 0.8 NNW 24 35 13 19 1012.7 - 0.0
28/07:00am 11.7 7.2 9.9 89 0.9 NNW 24 37 13 20 1012.8 1012.8 0.0
28/06:30am 12.0 6.0 10.1 88 1.0 NW 32 41 17 22 1012.8 - 0.0
28/06:00am 12.1 6.5 10.0 87 1.1 NNW 30 43 16 23 1012.7 1012.7 0.0
28/05:30am 12.2 6.1 9.8 85 1.2 NNW 32 46 17 25 1012.8 - 0.0
28/05:00am 12.2 6.9 9.8 85 1.2 NNW 28 39 15 21 1012.8 1012.8 0.0
28/04:30am 12.2 7.6 9.6 84 1.3 NNW 24 37 13 20 1012.9 - 0.0
28/04:00am 11.8 7.8 9.0 83 1.4 NNW 20 30 11 16 1013.0 1013.0 0.0
28/03:30am 12.1 7.7 8.9 81 1.6 N 22 39 12 21 1013.2 - 0.0
28/03:00am 11.9 7.9 8.4 79 1.7 N 19 26 10 14 1013.3 1013.3 0.0
28/02:30am 12.7 7.9 8.8 77 2.0 NNW 24 37 13 20 1013.6 - 0.0
28/02:00am 12.6 7.3 8.5 76 2.0 NNW 26 39 14 21 1013.6 1013.6 0.0
28/01:30am 12.2 8.0 8.1 76 2.0 N 20 28 11 15 1013.9 - 0.0
28/01:00am 12.4 7.3 7.7 73 2.3 N 24 41 13 22 1014.3 1014.3 0.0
28/12:30am 12.6 7.1 7.7 72 2.4 NNW 26 37 14 20 1014.6 - 0.0
28/12:00am 12.9 6.2 7.4 69 2.7 NNW 32 43 17 23 1014.8 1014.8 0.0
 
Date/Time
EST
Temp
°C
App
Temp
°C
Dew
Point
Rel
Hum
%
Delta-T
°C
Wind Press
QNH
hPa
Press
MSL
hPa
Rain
since 9 am
mm
Dir
 
Spd
km/h
Gust
km/h
Spd
kts
Gust
kts
27/11:33pm 13.1 6.8 7.3 68 2.8 NNW 30 48 16 26 1015.1 - 0.0
27/11:30pm 13.1 6.4 7.3 68 2.8 NNW 32 48 17 26 1015.1 - 0.0
27/11:00pm 12.3 7.1 7.4 72 2.4 NNW 24 37 13 20 1015.4 1015.4 0.0
27/10:30pm 12.7 6.8 7.4 70 2.6 NNW 28 44 15 24 1015.4 - 0.0
27/10:18pm 12.8 6.9 7.3 69 2.7 NNW 28 46 15 25 1015.4 - 0.0
27/10:00pm 12.7 6.0 7.2 69 2.7 NNW 32 46 17 25 1015.5 1015.5 0.0
27/09:41pm 12.9 6.2 7.4 69 2.7 NNW 32 56 17 30 1015.5 - 0.0
27/09:30pm 12.9 6.2 7.4 69 2.7 NNW 32 46 17 25 1015.8 - 0.0
27/09:00pm 12.8 6.5 7.5 70 2.6 NNW 30 52 16 28 1015.7 1015.7 0.0
27/08:50pm 12.7 6.4 7.6 71 2.5 NNW 30 48 16 26 1015.5 - 0.0
27/08:30pm 12.4 6.5 7.5 72 2.4 N 28 41 15 22 1015.5 - 0.0
27/08:00pm 12.1 6.6 7.6 74 2.2 N 26 43 14 23 1015.7 1015.7 0.0
27/07:30pm 12.2 6.8 7.9 75 2.1 N 26 41 14 22 1015.7 - 0.0
27/07:00pm 12.4 6.7 8.3 76 2.0 N 28 41 15 22 1015.9 1015.9 0.0
27/06:30pm 12.6 7.7 8.3 75 2.1 N 24 32 13 17 1016.2 - 0.0
27/06:00pm 12.9 8.0 8.6 75 2.1 N 24 33 13 18 1016.1 1016.1 0.0
27/05:30pm 13.6 8.4 8.7 72 2.5 N 26 39 14 21 1016.1 - 0.0
27/05:00pm 14.1 9.3 8.7 70 2.7 N 24 33 13 18 1016.0 1016.0 0.0
27/04:30pm 14.8 9.6 8.7 67 3.1 NNW 26 37 14 20 1016.1 - 0.0
27/04:00pm 15.3 10.1 9.0 66 3.2 NNW 26 41 14 22 1016.2 1016.2 0.0
27/03:38pm 15.7 10.1 8.9 64 3.5 NNW 28 46 15 25 1016.4 - 0.0
27/03:30pm 16.1 10.6 9.1 63 3.6 NNW 28 41 15 22 1016.5 - 0.0
27/03:00pm 15.9 9.9 8.6 62 3.7 NNW 30 41 16 22 1016.6 1016.6 0.0
27/02:30pm 16.9 12.0 9.8 63 3.7 NNW 26 35 14 19 1016.8 - 0.0
27/02:00pm 16.3 11.3 9.5 64 3.5 NNW 26 39 14 21 1017.0 1017.1 0.0
27/01:30pm 15.7 9.8 9.1 65 3.4 NNW 30 41 16 22 1017.4 - 0.0
27/01:00pm 15.3 9.0 8.8 65 3.3 NNW 32 43 17 23 1017.6 1017.7 0.0
27/12:30pm 14.5 8.6 9.1 70 2.8 NNW 30 44 16 24 1018.2 - 0.0
27/12:01pm 14.7 8.1 8.4 66 3.2 NNW 33 52 18 28 1018.9 - 0.0
27/12:00pm 14.7 8.1 8.6 67 3.1 NNW 33 46 18 25 1018.9 1019.0 0.0
27/11:30am 14.0 7.5 8.2 68 2.9 NNW 32 44 17 24 1019.6 - 0.0
27/11:00am 13.3 6.8 8.2 71 2.5 NNW 32 50 17 27 1020.2 1020.3 0.0
27/10:57am 13.0 6.4 7.7 70 2.6 NNW 32 50 17 27 1020.2 - 0.0
27/10:30am 11.9 6.7 7.4 74 2.2 N 24 37 13 20 1020.4 - 0.0
27/10:02am 11.7 5.8 7.4 75 2.1 N 28 46 15 25 1020.4 - 0.0
27/10:00am 11.6 6.0 7.3 75 2.1 N 26 39 14 21 1020.3 1020.4 0.0
27/09:46am 11.4 5.5 7.7 78 1.8 N 28 46 15 25 1020.6 - 0.0
27/09:30am 11.2 5.0 7.9 80 1.6 N 30 41 16 22 1020.2 - 0.0
27/09:00am 10.2 4.7 7.6 84 1.2 N 26 41 14 22 1020.8 1020.9 0.0
27/08:32am 9.7 3.9 8.0 89 0.8 N 28 48 15 26 1020.8 - 0.0
27/08:30am 9.7 3.9 8.0 89 0.8 N 28 43 15 23 1020.9 - 0.0
27/08:00am 9.1 3.2 7.4 89 0.8 N 28 39 15 21 1020.9 1021.0 0.0
27/07:30am 8.9 4.4 7.0 88 0.9 N 20 30 11 16 1021.2 - 0.0
27/07:00am 8.9 4.0 7.0 88 0.9 NNW 22 33 12 18 1021.6 1021.7 0.0
27/06:30am 8.5 3.5 6.6 88 0.9 N 22 35 12 19 1021.7 - 0.0
27/06:00am 8.8 3.5 6.9 88 0.9 N 24 39 13 21 1021.8 1021.9 0.0
27/05:30am 8.6 3.7 7.1 90 0.7 NNW 22 30 12 16 1022.0 - 0.0
27/05:00am 8.7 3.9 7.2 90 0.7 N 22 32 12 17 1022.1 1022.2 0.0
27/04:30am 9.1 4.3 7.4 89 0.8 NNW 22 32 12 17 1022.4 - 0.0
27/04:00am 9.4 4.8 8.0 91 0.7 NNW 22 30 12 16 1022.7 1022.8 0.0
27/03:30am 9.1 5.0 7.9 92 0.6 NNW 19 24 10 13 1022.9 - 0.0
27/03:00am 9.3 4.7 8.2 93 0.5 NNW 22 32 12 17 1023.0 1023.1 0.0
27/02:30am 9.2 5.0 8.3 94 0.4 NNW 20 30 11 16 1023.1 - 0.0
27/02:00am 9.0 4.7 7.9 93 0.5 NNW 20 28 11 15 1023.3 1023.4 0.0
27/01:30am 9.6 5.7 8.5 93 0.5 NNW 19 28 10 15 1023.4 - 0.0
27/01:00am 9.4 4.4 8.2 92 0.6 N 24 33 13 18 1023.5 1023.6 0.0
27/12:30am 9.4 5.4 8.2 92 0.6 N 19 26 10 14 1023.7 - 0.0
27/12:00am 9.5 5.5 8.4 93 0.5 N 19 24 10 13 1024.1 1024.2 0.0
 
Date/Time
EST
Temp
°C
App
Temp
°C
Dew
Point
Rel
Hum
%
Delta-T
°C
Wind Press
QNH
hPa
Press
MSL
hPa
Rain
since 9 am
mm
Dir
 
Spd
km/h
Gust
km/h
Spd
kts
Gust
kts
26/11:30pm 9.4 5.8 8.3 93 0.5 N 17 22 9 12 1024.2 - 0.0
26/11:00pm 9.3 5.7 8.2 93 0.5 N 17 22 9 12 1024.5 1024.6 0.0
26/10:30pm 9.1 5.8 8.0 93 0.5 N 15 20 8 11 1024.7 - 0.0
26/10:00pm 9.0 5.7 8.1 94 0.4 N 15 17 8 9 1024.9 1025.0 0.0
26/09:30pm 8.7 5.3 7.8 94 0.4 N 15 17 8 9 1024.9 - 0.0
26/09:00pm 7.9 5.1 6.8 93 0.5 N 11 13 6 7 1025.0 1025.1 0.0
26/08:30pm 8.0 5.6 6.8 92 0.6 N 9 11 5 6 1025.0 - 0.0
26/08:00pm 8.2 5.4 6.8 91 0.6 N 11 13 6 7 1024.9 1025.0 0.0
26/07:30pm 8.1 5.9 6.2 88 0.9 N 7 7 4 4 1024.9 - 0.0
26/07:00pm 9.0 6.9 6.6 85 1.1 N 7 9 4 5 1024.8 1024.9 0.0
26/06:30pm 10.4 8.2 7.8 84 1.3 NW 9 13 5 7 1024.8 - 0.0
26/06:00pm 11.5 9.1 8.5 82 1.5 NW 11 13 6 7 1024.7 1024.8 0.0
26/05:30pm 12.5 9.8 9.0 79 1.8 WNW 13 17 7 9 1024.6 - 0.0
26/05:00pm 13.0 10.0 9.1 77 2.0 W 15 20 8 11 1024.5 1024.6 0.0
26/04:30pm 13.2 10.6 9.3 77 2.0 W 13 19 7 10 1024.4 - 0.0
26/04:00pm 13.1 9.6 8.6 74 2.2 W 17 24 9 13 1024.1 1024.2 0.0
26/03:30pm 13.0 8.8 8.3 73 2.3 W 20 30 11 16 1023.9 - 0.0
26/03:00pm 13.1 8.2 8.6 74 2.2 W 24 33 13 18 1023.9 1024.0 0.0
26/02:30pm 13.0 8.9 7.9 71 2.5 W 19 26 10 14 1023.7 - 0.0
26/02:00pm 13.3 8.4 8.4 72 2.4 W 24 33 13 18 1023.5 1023.6 0.0
26/01:30pm 13.1 8.6 8.4 73 2.3 W 22 33 12 18 1023.6 - 0.0
26/01:00pm 13.4 8.0 8.0 70 2.7 W 26 33 14 18 1023.9 1024.0 0.0
26/12:30pm 13.2 8.6 8.3 72 2.4 W 22 33 12 18 1024.1 - 0.0
26/12:00pm 13.2 8.2 7.9 70 2.6 W 24 33 13 18 1024.5 1024.6 0.0
26/11:30am 12.9 6.7 8.0 72 2.4 W 30 41 16 22 1024.6 - 0.0
26/11:00am 13.0 9.0 9.1 77 2.0 NNW 20 28 11 15 1024.2 1024.3 0.0
26/10:30am 12.8 9.2 8.5 75 2.1 NNE 17 26 9 14 1024.2 - 0.0

Other Formats:

Comma delimited format used in spreadsheet applications
http://www.bom.gov.au/fwo/IDV60801/IDV60801.94826.axf

JavaScript Object Notation format (JSON) in row-major order
http://www.bom.gov.au/fwo/IDV60801/IDV60801.94826.json